sensor_id;sensor_type;location;lat;lon;timestamp;P1;durP1;ratioP1;P2;durP2;ratioP2
4353;SDS011;11018;51.258;6.806;2022-08-11T00:01:44;4.82;;;2.90;;
4353;SDS011;11018;51.258;6.806;2022-08-11T00:04:15;4.60;;;2.90;;
4353;SDS011;11018;51.258;6.806;2022-08-11T00:06:42;4.50;;;3.20;;
4353;SDS011;11018;51.258;6.806;2022-08-11T00:09:16;3.72;;;2.90;;
4353;SDS011;11018;51.258;6.806;2022-08-11T00:11:46;6.30;;;3.40;;
4353;SDS011;11018;51.258;6.806;2022-08-11T00:14:20;4.70;;;3.33;;
4353;SDS011;11018;51.258;6.806;2022-08-11T00:16:54;5.10;;;3.20;;
4353;SDS011;11018;51.258;6.806;2022-08-11T00:19:32;6.43;;;3.22;;
4353;SDS011;11018;51.258;6.806;2022-08-11T00:22:01;6.53;;;3.10;;
4353;SDS011;11018;51.258;6.806;2022-08-11T00:24:31;5.97;;;2.90;;
4353;SDS011;11018;51.258;6.806;2022-08-11T00:26:58;5.00;;;3.20;;
4353;SDS011;11018;51.258;6.806;2022-08-11T00:29:25;8.75;;;3.25;;
4353;SDS011;11018;51.258;6.806;2022-08-11T00:31:52;7.32;;;3.22;;
4353;SDS011;11018;51.258;6.806;2022-08-11T00:34:25;8.82;;;3.70;;
4353;SDS011;11018;51.258;6.806;2022-08-11T00:39:27;6.23;;;3.50;;
4353;SDS011;11018;51.258;6.806;2022-08-11T00:50:10;10.77;;;3.70;;
4353;SDS011;11018;51.258;6.806;2022-08-11T01:03:47;12.00;;;4.50;;
4353;SDS011;11018;51.258;6.806;2022-08-11T01:06:45;9.82;;;4.20;;
4353;SDS011;11018;51.258;6.806;2022-08-11T01:14:52;8.05;;;3.90;;
4353;SDS011;11018;51.258;6.806;2022-08-11T01:23:48;8.05;;;4.30;;
4353;SDS011;11018;51.258;6.806;2022-08-11T01:32:48;7.70;;;4.30;;
4353;SDS011;11018;51.258;6.806;2022-08-11T01:35:47;8.27;;;4.10;;
4353;SDS011;11018;51.258;6.806;2022-08-11T01:41:38;10.43;;;4.78;;
4353;SDS011;11018;51.258;6.806;2022-08-11T02:01:53;9.50;;;4.95;;
4353;SDS011;11018;51.258;6.806;2022-08-11T02:04:46;8.82;;;4.60;;
4353;SDS011;11018;51.258;6.806;2022-08-11T02:22:00;8.88;;;4.63;;
4353;SDS011;11018;51.258;6.806;2022-08-11T04:09:23;9.63;;;6.57;;
4353;SDS011;11018;51.258;6.806;2022-08-11T04:20:50;16.95;;;7.13;;
4353;SDS011;11018;51.258;6.806;2022-08-11T04:23:55;13.73;;;8.25;;
4353;SDS011;11018;51.258;6.806;2022-08-11T04:32:03;12.05;;;6.80;;
4353;SDS011;11018;51.258;6.806;2022-08-11T04:37:10;13.10;;;6.43;;
4353;SDS011;11018;51.258;6.806;2022-08-11T04:45:53;10.35;;;5.85;;
4353;SDS011;11018;51.258;6.806;2022-08-11T05:01:14;12.80;;;5.57;;
4353;SDS011;11018;51.258;6.806;2022-08-11T05:12:25;10.48;;;5.60;;
4353;SDS011;11018;51.258;6.806;2022-08-11T05:15:00;9.23;;;5.50;;
4353;SDS011;11018;51.258;6.806;2022-08-11T05:18:08;8.85;;;5.63;;
4353;SDS011;11018;51.258;6.806;2022-08-11T05:21:02;9.85;;;5.47;;
4353;SDS011;11018;51.258;6.806;2022-08-11T05:23:52;9.88;;;5.30;;
4353;SDS011;11018;51.258;6.806;2022-08-11T05:26:45;9.10;;;5.82;;
4353;SDS011;11018;51.258;6.806;2022-08-11T05:29:38;10.93;;;6.60;;
4353;SDS011;11018;51.258;6.806;2022-08-11T05:32:27;11.30;;;5.53;;
4353;SDS011;11018;51.258;6.806;2022-08-11T05:35:18;11.98;;;6.25;;
4353;SDS011;11018;51.258;6.806;2022-08-11T05:37:55;17.40;;;7.07;;
4353;SDS011;11018;51.258;6.806;2022-08-11T05:40:46;11.93;;;6.03;;
4353;SDS011;11018;51.258;6.806;2022-08-11T05:43:38;24.35;;;7.68;;
4353;SDS011;11018;51.258;6.806;2022-08-11T05:46:25;13.82;;;6.25;;
4353;SDS011;11018;51.258;6.806;2022-08-11T05:49:11;27.38;;;7.05;;
4353;SDS011;11018;51.258;6.806;2022-08-11T05:51:56;22.00;;;6.72;;
4353;SDS011;11018;51.258;6.806;2022-08-11T05:54:42;15.85;;;6.70;;
4353;SDS011;11018;51.258;6.806;2022-08-11T05:57:28;18.60;;;6.32;;
4353;SDS011;11018;51.258;6.806;2022-08-11T06:00:00;19.95;;;6.53;;
4353;SDS011;11018;51.258;6.806;2022-08-11T06:02:29;15.98;;;6.60;;
4353;SDS011;11018;51.258;6.806;2022-08-11T06:04:59;17.88;;;6.80;;
4353;SDS011;11018;51.258;6.806;2022-08-11T06:07:26;11.48;;;6.28;;
4353;SDS011;11018;51.258;6.806;2022-08-11T06:09:57;9.60;;;5.50;;
4353;SDS011;11018;51.258;6.806;2022-08-11T06:12:31;10.15;;;6.25;;
4353;SDS011;11018;51.258;6.806;2022-08-11T06:15:05;12.50;;;6.55;;
4353;SDS011;11018;51.258;6.806;2022-08-11T06:17:34;15.83;;;6.50;;
4353;SDS011;11018;51.258;6.806;2022-08-11T06:20:09;14.30;;;6.50;;
4353;SDS011;11018;51.258;6.806;2022-08-11T06:22:37;16.38;;;7.00;;
4353;SDS011;11018;51.258;6.806;2022-08-11T06:25:05;19.75;;;7.38;;
4353;SDS011;11018;51.258;6.806;2022-08-11T06:27:34;20.20;;;6.85;;
4353;SDS011;11018;51.258;6.806;2022-08-11T06:30:02;18.42;;;7.93;;
4353;SDS011;11018;51.258;6.806;2022-08-11T06:32:38;14.90;;;7.40;;
4353;SDS011;11018;51.258;6.806;2022-08-11T06:46:51;17.80;;;6.03;;
4353;SDS011;11018;51.258;6.806;2022-08-11T06:49:20;19.33;;;6.70;;
4353;SDS011;11018;51.258;6.806;2022-08-11T06:52:10;16.35;;;6.50;;
4353;SDS011;11018;51.258;6.806;2022-08-11T06:54:40;13.15;;;6.63;;
4353;SDS011;11018;51.258;6.806;2022-08-11T06:57:11;12.25;;;6.85;;
4353;SDS011;11018;51.258;6.806;2022-08-11T06:59:56;8.75;;;5.75;;
4353;SDS011;11018;51.258;6.806;2022-08-11T07:02:56;15.00;;;6.30;;
4353;SDS011;11018;51.258;6.806;2022-08-11T07:08:24;11.98;;;5.60;;
4353;SDS011;11018;51.258;6.806;2022-08-11T07:11:39;8.95;;;5.60;;
4353;SDS011;11018;51.258;6.806;2022-08-11T07:14:53;12.30;;;5.32;;
4353;SDS011;11018;51.258;6.806;2022-08-11T07:17:51;11.57;;;5.82;;
4353;SDS011;11018;51.258;6.806;2022-08-11T07:20:38;10.40;;;5.95;;
4353;SDS011;11018;51.258;6.806;2022-08-11T07:23:24;10.93;;;5.07;;
4353;SDS011;11018;51.258;6.806;2022-08-11T07:26:11;14.90;;;5.70;;
4353;SDS011;11018;51.258;6.806;2022-08-11T07:28:56;10.65;;;5.45;;
4353;SDS011;11018;51.258;6.806;2022-08-11T07:36:56;10.70;;;5.75;;
4353;SDS011;11018;51.258;6.806;2022-08-11T07:39:24;10.47;;;5.30;;
4353;SDS011;11018;51.258;6.806;2022-08-11T07:41:53;8.55;;;5.30;;
4353;SDS011;11018;51.258;6.806;2022-08-11T07:44:21;11.48;;;5.63;;
4353;SDS011;11018;51.258;6.806;2022-08-11T07:46:53;7.70;;;5.60;;
4353;SDS011;11018;51.258;6.806;2022-08-11T07:49:39;8.40;;;5.60;;
4353;SDS011;11018;51.258;6.806;2022-08-11T07:52:27;7.63;;;5.00;;
4353;SDS011;11018;51.258;6.806;2022-08-11T07:55:05;17.08;;;8.55;;
4353;SDS011;11018;51.258;6.806;2022-08-11T07:57:31;11.50;;;5.00;;
4353;SDS011;11018;51.258;6.806;2022-08-11T08:00:17;9.00;;;5.50;;
4353;SDS011;11018;51.258;6.806;2022-08-11T08:03:05;12.45;;;5.10;;
4353;SDS011;11018;51.258;6.806;2022-08-11T08:05:51;9.63;;;4.60;;
4353;SDS011;11018;51.258;6.806;2022-08-11T08:08:36;9.98;;;4.88;;
4353;SDS011;11018;51.258;6.806;2022-08-11T08:11:23;11.40;;;4.90;;
4353;SDS011;11018;51.258;6.806;2022-08-11T08:14:09;10.73;;;5.95;;
4353;SDS011;11018;51.258;6.806;2022-08-11T08:16:54;10.90;;;5.43;;
4353;SDS011;11018;51.258;6.806;2022-08-11T08:19:42;5.25;;;4.22;;
4353;SDS011;11018;51.258;6.806;2022-08-11T08:22:11;10.27;;;4.57;;
4353;SDS011;11018;51.258;6.806;2022-08-11T08:24:41;11.20;;;4.72;;
4353;SDS011;11018;51.258;6.806;2022-08-11T08:27:08;14.83;;;4.50;;
4353;SDS011;11018;51.258;6.806;2022-08-11T08:29:36;9.35;;;5.13;;
4353;SDS011;11018;51.258;6.806;2022-08-11T08:32:21;8.82;;;4.75;;
4353;SDS011;11018;51.258;6.806;2022-08-11T08:34:50;9.25;;;4.25;;
4353;SDS011;11018;51.258;6.806;2022-08-11T08:37:20;12.80;;;5.53;;
4353;SDS011;11018;51.258;6.806;2022-08-11T08:39:48;6.53;;;4.30;;
4353;SDS011;11018;51.258;6.806;2022-08-11T08:42:19;6.78;;;4.50;;
4353;SDS011;11018;51.258;6.806;2022-08-11T08:44:55;11.63;;;5.60;;
4353;SDS011;11018;51.258;6.806;2022-08-11T08:47:29;7.93;;;5.03;;
4353;SDS011;11018;51.258;6.806;2022-08-11T08:50:00;11.55;;;5.47;;
4353;SDS011;11018;51.258;6.806;2022-08-11T08:52:30;13.90;;;4.60;;
4353;SDS011;11018;51.258;6.806;2022-08-11T08:55:04;8.50;;;4.23;;
4353;SDS011;11018;51.258;6.806;2022-08-11T08:57:32;9.80;;;4.80;;
4353;SDS011;11018;51.258;6.806;2022-08-11T08:59:59;9.50;;;4.85;;
4353;SDS011;11018;51.258;6.806;2022-08-11T09:02:27;11.45;;;5.05;;
4353;SDS011;11018;51.258;6.806;2022-08-11T09:04:53;9.47;;;3.90;;
4353;SDS011;11018;51.258;6.806;2022-08-11T09:07:21;5.78;;;4.30;;
4353;SDS011;11018;51.258;6.806;2022-08-11T09:09:51;7.72;;;4.00;;
4353;SDS011;11018;51.258;6.806;2022-08-11T09:12:20;6.60;;;4.90;;
4353;SDS011;11018;51.258;6.806;2022-08-11T09:14:54;7.22;;;4.20;;
4353;SDS011;11018;51.258;6.806;2022-08-11T09:17:25;6.00;;;4.28;;
4353;SDS011;11018;51.258;6.806;2022-08-11T09:22:49;8.75;;;3.90;;
4353;SDS011;11018;51.258;6.806;2022-08-11T09:25:34;6.53;;;4.03;;
4353;SDS011;11018;51.258;6.806;2022-08-11T09:28:19;9.13;;;4.40;;
4353;SDS011;11018;51.258;6.806;2022-08-11T09:30:50;10.02;;;5.05;;
4353;SDS011;11018;51.258;6.806;2022-08-11T09:33:17;6.20;;;4.10;;
4353;SDS011;11018;51.258;6.806;2022-08-11T09:35:45;6.75;;;4.10;;
4353;SDS011;11018;51.258;6.806;2022-08-11T09:38:14;5.45;;;3.78;;
4353;SDS011;11018;51.258;6.806;2022-08-11T09:41:01;5.57;;;3.70;;
4353;SDS011;11018;51.258;6.806;2022-08-11T09:43:32;7.25;;;4.30;;
4353;SDS011;11018;51.258;6.806;2022-08-11T09:46:21;8.27;;;4.25;;
4353;SDS011;11018;51.258;6.806;2022-08-11T09:48:50;6.60;;;4.50;;
4353;SDS011;11018;51.258;6.806;2022-08-11T09:51:18;7.50;;;4.53;;
4353;SDS011;11018;51.258;6.806;2022-08-11T09:53:46;6.22;;;4.30;;
4353;SDS011;11018;51.258;6.806;2022-08-11T09:56:20;5.60;;;3.70;;
4353;SDS011;11018;51.258;6.806;2022-08-11T09:59:06;6.03;;;3.95;;
4353;SDS011;11018;51.258;6.806;2022-08-11T10:01:34;5.78;;;3.50;;
4353;SDS011;11018;51.258;6.806;2022-08-11T10:06:43;5.40;;;3.65;;
4353;SDS011;11018;51.258;6.806;2022-08-11T10:09:26;5.22;;;4.30;;
4353;SDS011;11018;51.258;6.806;2022-08-11T10:11:58;7.22;;;3.90;;
4353;SDS011;11018;51.258;6.806;2022-08-11T10:14:27;5.60;;;4.30;;
4353;SDS011;11018;51.258;6.806;2022-08-11T10:17:13;9.45;;;4.40;;
4353;SDS011;11018;51.258;6.806;2022-08-11T10:19:42;6.15;;;3.60;;
4353;SDS011;11018;51.258;6.806;2022-08-11T10:22:11;5.65;;;4.90;;
4353;SDS011;11018;51.258;6.806;2022-08-11T10:24:57;4.28;;;3.65;;
4353;SDS011;11018;51.258;6.806;2022-08-11T10:27:43;9.90;;;4.47;;
4353;SDS011;11018;51.258;6.806;2022-08-11T10:30:09;3.93;;;3.53;;
4353;SDS011;11018;51.258;6.806;2022-08-11T10:32:55;5.32;;;3.47;;
4353;SDS011;11018;51.258;6.806;2022-08-11T10:35:41;5.47;;;3.60;;
4353;SDS011;11018;51.258;6.806;2022-08-11T10:38:09;4.63;;;3.33;;
4353;SDS011;11018;51.258;6.806;2022-08-11T10:40:38;4.53;;;3.50;;
4353;SDS011;11018;51.258;6.806;2022-08-11T10:43:04;6.50;;;3.77;;
4353;SDS011;11018;51.258;6.806;2022-08-11T10:45:36;3.70;;;3.38;;
4353;SDS011;11018;51.258;6.806;2022-08-11T10:48:22;10.57;;;3.80;;
4353;SDS011;11018;51.258;6.806;2022-08-11T10:50:50;4.88;;;4.45;;
4353;SDS011;11018;51.258;6.806;2022-08-11T10:53:36;5.40;;;4.10;;
4353;SDS011;11018;51.258;6.806;2022-08-11T10:56:22;7.90;;;3.80;;
4353;SDS011;11018;51.258;6.806;2022-08-11T10:59:08;9.23;;;4.38;;
4353;SDS011;11018;51.258;6.806;2022-08-11T11:01:37;6.65;;;4.20;;
4353;SDS011;11018;51.258;6.806;2022-08-11T11:04:06;9.25;;;4.97;;
4353;SDS011;11018;51.258;6.806;2022-08-11T11:09:23;7.20;;;4.10;;
4353;SDS011;11018;51.258;6.806;2022-08-11T11:11:57;6.80;;;3.78;;
4353;SDS011;11018;51.258;6.806;2022-08-11T11:14:46;11.13;;;5.00;;
4353;SDS011;11018;51.258;6.806;2022-08-11T11:17:54;4.83;;;4.10;;
4353;SDS011;11018;51.258;6.806;2022-08-11T11:23:48;5.75;;;4.03;;
4353;SDS011;11018;51.258;6.806;2022-08-11T11:26:40;10.18;;;4.80;;
4353;SDS011;11018;51.258;6.806;2022-08-11T11:37:39;6.93;;;4.88;;
4353;SDS011;11018;51.258;6.806;2022-08-11T11:40:11;7.90;;;5.30;;
4353;SDS011;11018;51.258;6.806;2022-08-11T11:42:39;15.82;;;4.50;;
4353;SDS011;11018;51.258;6.806;2022-08-11T11:45:06;8.13;;;3.92;;
4353;SDS011;11018;51.258;6.806;2022-08-11T11:47:34;6.57;;;3.97;;
4353;SDS011;11018;51.258;6.806;2022-08-11T11:50:01;5.57;;;3.80;;
4353;SDS011;11018;51.258;6.806;2022-08-11T11:52:28;7.13;;;3.90;;
4353;SDS011;11018;51.258;6.806;2022-08-11T11:54:55;4.25;;;3.20;;
4353;SDS011;11018;51.258;6.806;2022-08-11T11:57:21;4.50;;;3.90;;
4353;SDS011;11018;51.258;6.806;2022-08-11T12:00:07;4.27;;;3.40;;
4353;SDS011;11018;51.258;6.806;2022-08-11T12:02:57;4.50;;;3.60;;
4353;SDS011;11018;51.258;6.806;2022-08-11T12:05:24;8.65;;;3.30;;
4353;SDS011;11018;51.258;6.806;2022-08-11T12:07:51;6.50;;;3.60;;
4353;SDS011;11018;51.258;6.806;2022-08-11T12:10:42;5.47;;;3.70;;
4353;SDS011;11018;51.258;6.806;2022-08-11T12:13:17;5.25;;;3.78;;
4353;SDS011;11018;51.258;6.806;2022-08-11T12:16:02;5.55;;;3.85;;
4353;SDS011;11018;51.258;6.806;2022-08-11T12:18:30;6.60;;;3.60;;
4353;SDS011;11018;51.258;6.806;2022-08-11T12:21:00;7.65;;;3.97;;
4353;SDS011;11018;51.258;6.806;2022-08-11T12:23:26;5.90;;;4.10;;
4353;SDS011;11018;51.258;6.806;2022-08-11T12:26:14;3.60;;;3.30;;
4353;SDS011;11018;51.258;6.806;2022-08-11T12:29:00;6.30;;;4.03;;
4353;SDS011;11018;51.258;6.806;2022-08-11T12:31:29;10.37;;;4.70;;
4353;SDS011;11018;51.258;6.806;2022-08-11T12:33:59;4.53;;;3.60;;
4353;SDS011;11018;51.258;6.806;2022-08-11T12:36:30;4.85;;;3.95;;
4353;SDS011;11018;51.258;6.806;2022-08-11T12:39:00;6.55;;;4.40;;
4353;SDS011;11018;51.258;6.806;2022-08-11T12:41:29;4.10;;;3.30;;
4353;SDS011;11018;51.258;6.806;2022-08-11T12:44:15;5.77;;;3.40;;
4353;SDS011;11018;51.258;6.806;2022-08-11T12:47:00;4.10;;;3.55;;
4353;SDS011;11018;51.258;6.806;2022-08-11T12:49:28;5.57;;;4.20;;
4353;SDS011;11018;51.258;6.806;2022-08-11T12:52:18;7.90;;;4.30;;
4353;SDS011;11018;51.258;6.806;2022-08-11T12:55:02;7.72;;;3.60;;
4353;SDS011;11018;51.258;6.806;2022-08-11T12:57:41;5.10;;;3.67;;
4353;SDS011;11018;51.258;6.806;2022-08-11T13:00:29;6.78;;;3.63;;
4353;SDS011;11018;51.258;6.806;2022-08-11T13:03:14;6.00;;;3.90;;
4353;SDS011;11018;51.258;6.806;2022-08-11T13:06:03;5.18;;;3.83;;
4353;SDS011;11018;51.258;6.806;2022-08-11T13:08:31;4.82;;;3.95;;
4353;SDS011;11018;51.258;6.806;2022-08-11T13:10:59;5.68;;;4.00;;
4353;SDS011;11018;51.258;6.806;2022-08-11T13:13:45;6.40;;;4.13;;
4353;SDS011;11018;51.258;6.806;2022-08-11T13:16:12;7.80;;;3.85;;
4353;SDS011;11018;51.258;6.806;2022-08-11T13:18:39;5.88;;;4.00;;
4353;SDS011;11018;51.258;6.806;2022-08-11T13:21:07;4.40;;;3.88;;
4353;SDS011;11018;51.258;6.806;2022-08-11T13:23:35;4.53;;;3.10;;
4353;SDS011;11018;51.258;6.806;2022-08-11T13:26:02;4.63;;;3.47;;
4353;SDS011;11018;51.258;6.806;2022-08-11T13:28:29;5.45;;;4.95;;
4353;SDS011;11018;51.258;6.806;2022-08-11T13:30:55;8.02;;;3.70;;
4353;SDS011;11018;51.258;6.806;2022-08-11T13:33:41;7.20;;;3.20;;
4353;SDS011;11018;51.258;6.806;2022-08-11T13:36:09;5.13;;;3.40;;
4353;SDS011;11018;51.258;6.806;2022-08-11T13:38:36;4.32;;;3.33;;
4353;SDS011;11018;51.258;6.806;2022-08-11T13:41:06;3.45;;;3.15;;
4353;SDS011;11018;51.258;6.806;2022-08-11T13:43:52;7.50;;;3.80;;
4353;SDS011;11018;51.258;6.806;2022-08-11T13:46:19;6.03;;;3.83;;
4353;SDS011;11018;51.258;6.806;2022-08-11T13:48:48;8.88;;;3.80;;
4353;SDS011;11018;51.258;6.806;2022-08-11T13:51:16;7.03;;;3.90;;
4353;SDS011;11018;51.258;6.806;2022-08-11T13:56:38;4.53;;;3.33;;
4353;SDS011;11018;51.258;6.806;2022-08-11T13:59:06;6.45;;;3.80;;
4353;SDS011;11018;51.258;6.806;2022-08-11T14:01:40;4.18;;;3.30;;
4353;SDS011;11018;51.258;6.806;2022-08-11T14:04:08;9.30;;;5.70;;
4353;SDS011;11018;51.258;6.806;2022-08-11T14:06:47;6.85;;;3.70;;
4353;SDS011;11018;51.258;6.806;2022-08-11T14:09:22;4.35;;;3.53;;
4353;SDS011;11018;51.258;6.806;2022-08-11T14:11:51;7.05;;;3.60;;
4353;SDS011;11018;51.258;6.806;2022-08-11T14:14:40;7.90;;;3.60;;
4353;SDS011;11018;51.258;6.806;2022-08-11T14:17:11;5.38;;;3.90;;
4353;SDS011;11018;51.258;6.806;2022-08-11T14:19:40;4.88;;;4.47;;
4353;SDS011;11018;51.258;6.806;2022-08-11T14:22:08;5.85;;;3.88;;
4353;SDS011;11018;51.258;6.806;2022-08-11T14:24:41;4.47;;;3.42;;
4353;SDS011;11018;51.258;6.806;2022-08-11T14:27:08;3.90;;;3.60;;
4353;SDS011;11018;51.258;6.806;2022-08-11T14:29:39;5.28;;;3.50;;
4353;SDS011;11018;51.258;6.806;2022-08-11T14:32:09;3.70;;;3.30;;
4353;SDS011;11018;51.258;6.806;2022-08-11T14:34:38;5.28;;;3.40;;
4353;SDS011;11018;51.258;6.806;2022-08-11T14:37:07;3.60;;;3.30;;
4353;SDS011;11018;51.258;6.806;2022-08-11T14:39:45;8.95;;;3.70;;
4353;SDS011;11018;51.258;6.806;2022-08-11T14:42:18;8.18;;;3.67;;
4353;SDS011;11018;51.258;6.806;2022-08-11T14:45:11;4.87;;;3.77;;
4353;SDS011;11018;51.258;6.806;2022-08-11T14:47:59;8.93;;;4.00;;
4353;SDS011;11018;51.258;6.806;2022-08-11T14:50:29;4.10;;;3.78;;
4353;SDS011;11018;51.258;6.806;2022-08-11T14:52:58;5.43;;;4.00;;
4353;SDS011;11018;51.258;6.806;2022-08-11T14:55:26;6.78;;;4.03;;
4353;SDS011;11018;51.258;6.806;2022-08-11T14:58:15;7.35;;;4.35;;
4353;SDS011;11018;51.258;6.806;2022-08-11T15:00:42;4.70;;;4.30;;
4353;SDS011;11018;51.258;6.806;2022-08-11T15:03:09;7.10;;;3.72;;
4353;SDS011;11018;51.258;6.806;2022-08-11T15:05:46;10.80;;;6.25;;
4353;SDS011;11018;51.258;6.806;2022-08-11T15:08:18;8.90;;;4.07;;
4353;SDS011;11018;51.258;6.806;2022-08-11T15:10:45;6.28;;;3.90;;
4353;SDS011;11018;51.258;6.806;2022-08-11T15:13:15;5.43;;;3.80;;
4353;SDS011;11018;51.258;6.806;2022-08-11T15:15:42;8.43;;;3.50;;
4353;SDS011;11018;51.258;6.806;2022-08-11T15:18:28;4.73;;;3.50;;
4353;SDS011;11018;51.258;6.806;2022-08-11T15:20:54;3.95;;;3.65;;
4353;SDS011;11018;51.258;6.806;2022-08-11T15:23:39;5.60;;;3.65;;
4353;SDS011;11018;51.258;6.806;2022-08-11T15:26:33;6.57;;;3.60;;
4353;SDS011;11018;51.258;6.806;2022-08-11T15:29:24;5.90;;;3.80;;
4353;SDS011;11018;51.258;6.806;2022-08-11T15:32:11;5.65;;;3.58;;
4353;SDS011;11018;51.258;6.806;2022-08-11T15:34:50;6.47;;;3.70;;
4353;SDS011;11018;51.258;6.806;2022-08-11T15:37:41;4.40;;;3.70;;
4353;SDS011;11018;51.258;6.806;2022-08-11T15:40:17;7.97;;;3.63;;
4353;SDS011;11018;51.258;6.806;2022-08-11T15:43:15;6.03;;;4.13;;
4353;SDS011;11018;51.258;6.806;2022-08-11T15:46:10;6.80;;;4.40;;
4353;SDS011;11018;51.258;6.806;2022-08-11T15:48:44;5.97;;;4.10;;
4353;SDS011;11018;51.258;6.806;2022-08-11T15:54:07;5.47;;;3.78;;
4353;SDS011;11018;51.258;6.806;2022-08-11T15:56:40;8.05;;;3.70;;
4353;SDS011;11018;51.258;6.806;2022-08-11T15:59:09;7.15;;;4.20;;
4353;SDS011;11018;51.258;6.806;2022-08-11T16:01:56;4.65;;;3.67;;
4353;SDS011;11018;51.258;6.806;2022-08-11T16:05:01;7.40;;;3.60;;
4353;SDS011;11018;51.258;6.806;2022-08-11T16:07:31;4.93;;;3.67;;
4353;SDS011;11018;51.258;6.806;2022-08-11T16:12:35;4.90;;;3.95;;
4353;SDS011;11018;51.258;6.806;2022-08-11T16:15:07;5.32;;;3.85;;
4353;SDS011;11018;51.258;6.806;2022-08-11T16:17:55;4.45;;;3.35;;
4353;SDS011;11018;51.258;6.806;2022-08-11T16:20:27;6.07;;;3.28;;
4353;SDS011;11018;51.258;6.806;2022-08-11T16:23:03;3.80;;;3.50;;
4353;SDS011;11018;51.258;6.806;2022-08-11T16:25:34;6.95;;;3.60;;
4353;SDS011;11018;51.258;6.806;2022-08-11T16:28:07;7.50;;;5.37;;
4353;SDS011;11018;51.258;6.806;2022-08-11T16:30:39;4.97;;;3.78;;
4353;SDS011;11018;51.258;6.806;2022-08-11T16:33:07;4.10;;;3.70;;
4353;SDS011;11018;51.258;6.806;2022-08-11T16:35:35;6.95;;;3.50;;
4353;SDS011;11018;51.258;6.806;2022-08-11T16:38:21;5.90;;;3.90;;
4353;SDS011;11018;51.258;6.806;2022-08-11T16:41:07;5.00;;;3.60;;
4353;SDS011;11018;51.258;6.806;2022-08-11T16:43:38;7.03;;;4.00;;
4353;SDS011;11018;51.258;6.806;2022-08-11T16:46:26;5.75;;;4.07;;
4353;SDS011;11018;51.258;6.806;2022-08-11T16:49:21;5.65;;;3.88;;
4353;SDS011;11018;51.258;6.806;2022-08-11T16:52:00;7.50;;;4.00;;
4353;SDS011;11018;51.258;6.806;2022-08-11T16:54:34;5.80;;;3.83;;
4353;SDS011;11018;51.258;6.806;2022-08-11T16:57:02;7.97;;;4.07;;
4353;SDS011;11018;51.258;6.806;2022-08-11T16:59:48;4.95;;;3.40;;
4353;SDS011;11018;51.258;6.806;2022-08-11T17:02:17;9.20;;;3.92;;
4353;SDS011;11018;51.258;6.806;2022-08-11T17:05:10;8.47;;;3.80;;
4353;SDS011;11018;51.258;6.806;2022-08-11T17:08:03;6.15;;;3.80;;
4353;SDS011;11018;51.258;6.806;2022-08-11T17:11:08;7.88;;;4.00;;
4353;SDS011;11018;51.258;6.806;2022-08-11T17:13:55;4.85;;;4.38;;
4353;SDS011;11018;51.258;6.806;2022-08-11T17:16:31;6.53;;;3.95;;
4353;SDS011;11018;51.258;6.806;2022-08-11T17:19:10;5.32;;;4.32;;
4353;SDS011;11018;51.258;6.806;2022-08-11T17:21:48;7.50;;;4.50;;
4353;SDS011;11018;51.258;6.806;2022-08-11T17:24:34;6.43;;;4.43;;
4353;SDS011;11018;51.258;6.806;2022-08-11T17:27:03;9.95;;;6.13;;
4353;SDS011;11018;51.258;6.806;2022-08-11T17:29:39;5.63;;;5.13;;
4353;SDS011;11018;51.258;6.806;2022-08-11T17:32:14;9.27;;;5.20;;
4353;SDS011;11018;51.258;6.806;2022-08-11T17:35:02;6.22;;;4.43;;
4353;SDS011;11018;51.258;6.806;2022-08-11T17:37:50;6.10;;;3.90;;
4353;SDS011;11018;51.258;6.806;2022-08-11T17:40:18;10.30;;;4.53;;
4353;SDS011;11018;51.258;6.806;2022-08-11T17:42:50;6.67;;;4.47;;
4353;SDS011;11018;51.258;6.806;2022-08-11T17:45:37;6.55;;;5.18;;
4353;SDS011;11018;51.258;6.806;2022-08-11T17:48:24;12.57;;;4.53;;
4353;SDS011;11018;51.258;6.806;2022-08-11T17:51:17;6.18;;;4.50;;
4353;SDS011;11018;51.258;6.806;2022-08-11T17:54:16;12.52;;;4.20;;
4353;SDS011;11018;51.258;6.806;2022-08-11T17:57:01;7.70;;;5.10;;
4353;SDS011;11018;51.258;6.806;2022-08-11T17:59:46;8.60;;;4.10;;
4353;SDS011;11018;51.258;6.806;2022-08-11T18:02:17;8.60;;;4.80;;
4353;SDS011;11018;51.258;6.806;2022-08-11T18:05:04;8.75;;;4.10;;
4353;SDS011;11018;51.258;6.806;2022-08-11T18:07:30;6.85;;;5.00;;
4353;SDS011;11018;51.258;6.806;2022-08-11T18:10:17;6.80;;;5.47;;
4353;SDS011;11018;51.258;6.806;2022-08-11T18:13:01;9.40;;;4.63;;
4353;SDS011;11018;51.258;6.806;2022-08-11T18:15:48;9.80;;;4.90;;
4353;SDS011;11018;51.258;6.806;2022-08-11T18:18:33;11.45;;;5.20;;
4353;SDS011;11018;51.258;6.806;2022-08-11T18:21:17;6.25;;;4.53;;
4353;SDS011;11018;51.258;6.806;2022-08-11T18:24:11;8.23;;;4.67;;
4353;SDS011;11018;51.258;6.806;2022-08-11T18:27:01;8.43;;;5.30;;
4353;SDS011;11018;51.258;6.806;2022-08-11T18:29:47;7.00;;;4.90;;
4353;SDS011;11018;51.258;6.806;2022-08-11T18:32:33;7.07;;;4.60;;
4353;SDS011;11018;51.258;6.806;2022-08-11T18:35:20;10.00;;;6.65;;
4353;SDS011;11018;51.258;6.806;2022-08-11T18:38:07;13.07;;;8.13;;
4353;SDS011;11018;51.258;6.806;2022-08-11T18:40:54;9.57;;;6.55;;
4353;SDS011;11018;51.258;6.806;2022-08-11T18:43:41;11.93;;;6.20;;
4353;SDS011;11018;51.258;6.806;2022-08-11T18:46:29;8.45;;;5.93;;
4353;SDS011;11018;51.258;6.806;2022-08-11T18:49:20;14.75;;;6.70;;
4353;SDS011;11018;51.258;6.806;2022-08-11T18:52:06;8.68;;;5.60;;
4353;SDS011;11018;51.258;6.806;2022-08-11T18:54:52;9.32;;;5.75;;
4353;SDS011;11018;51.258;6.806;2022-08-11T18:57:40;11.38;;;5.75;;
4353;SDS011;11018;51.258;6.806;2022-08-11T19:00:28;8.98;;;5.90;;
4353;SDS011;11018;51.258;6.806;2022-08-11T19:03:13;9.23;;;6.60;;
4353;SDS011;11018;51.258;6.806;2022-08-11T19:06:04;10.18;;;5.35;;
4353;SDS011;11018;51.258;6.806;2022-08-11T19:08:54;10.40;;;5.35;;
4353;SDS011;11018;51.258;6.806;2022-08-11T19:11:43;7.03;;;4.90;;
4353;SDS011;11018;51.258;6.806;2022-08-11T19:14:31;6.00;;;5.18;;
4353;SDS011;11018;51.258;6.806;2022-08-11T19:17:17;7.03;;;4.80;;
4353;SDS011;11018;51.258;6.806;2022-08-11T19:20:03;6.60;;;5.00;;
4353;SDS011;11018;51.258;6.806;2022-08-11T19:22:50;11.18;;;6.15;;
4353;SDS011;11018;51.258;6.806;2022-08-11T19:25:37;7.90;;;5.55;;
4353;SDS011;11018;51.258;6.806;2022-08-11T19:28:22;8.85;;;5.78;;
4353;SDS011;11018;51.258;6.806;2022-08-11T19:31:08;12.68;;;6.10;;
4353;SDS011;11018;51.258;6.806;2022-08-11T19:33:54;10.20;;;6.43;;
4353;SDS011;11018;51.258;6.806;2022-08-11T19:36:39;10.60;;;5.97;;
4353;SDS011;11018;51.258;6.806;2022-08-11T19:39:25;7.68;;;5.80;;
4353;SDS011;11018;51.258;6.806;2022-08-11T19:42:10;8.45;;;5.60;;
4353;SDS011;11018;51.258;6.806;2022-08-11T19:44:55;8.95;;;5.60;;
4353;SDS011;11018;51.258;6.806;2022-08-11T19:47:42;10.13;;;5.80;;
4353;SDS011;11018;51.258;6.806;2022-08-11T19:50:27;9.57;;;6.25;;
4353;SDS011;11018;51.258;6.806;2022-08-11T19:53:12;7.55;;;5.00;;
4353;SDS011;11018;51.258;6.806;2022-08-11T19:55:57;9.63;;;5.40;;
4353;SDS011;11018;51.258;6.806;2022-08-11T19:58:41;9.45;;;5.30;;
4353;SDS011;11018;51.258;6.806;2022-08-11T20:01:25;7.95;;;5.80;;
4353;SDS011;11018;51.258;6.806;2022-08-11T20:04:12;10.35;;;6.20;;
4353;SDS011;11018;51.258;6.806;2022-08-11T20:06:57;7.40;;;5.57;;
4353;SDS011;11018;51.258;6.806;2022-08-11T20:09:43;9.07;;;5.60;;
4353;SDS011;11018;51.258;6.806;2022-08-11T20:12:28;5.90;;;5.30;;
4353;SDS011;11018;51.258;6.806;2022-08-11T20:15:15;9.27;;;6.05;;
4353;SDS011;11018;51.258;6.806;2022-08-11T20:18:02;14.27;;;5.38;;
4353;SDS011;11018;51.258;6.806;2022-08-11T20:20:48;12.18;;;5.72;;
4353;SDS011;11018;51.258;6.806;2022-08-11T20:23:35;8.80;;;6.30;;
4353;SDS011;11018;51.258;6.806;2022-08-11T20:26:23;7.63;;;5.40;;
4353;SDS011;11018;51.258;6.806;2022-08-11T20:29:08;9.50;;;6.50;;
4353;SDS011;11018;51.258;6.806;2022-08-11T20:31:54;10.02;;;6.47;;
4353;SDS011;11018;51.258;6.806;2022-08-11T20:34:38;10.98;;;6.45;;
4353;SDS011;11018;51.258;6.806;2022-08-11T20:37:24;9.15;;;5.43;;
4353;SDS011;11018;51.258;6.806;2022-08-11T20:40:10;7.70;;;5.60;;